Time;durP1;ratioP1;P1;durP2;ratioP2;P2;SDS_P1;SDS_P2;PMS_P1;PMS_P2;Temp;Humidity;BMP_temperature;BMP_pressure;BME280_temperature;BME280_humidity;BME280_pressure;Samples;Min_cycle;Max_cycle;Signal;HPM_P1;HPM_P2
2022/05/19 00:01:47;;;;;;;0.00;0.00;;;;;;;;;;5040720;28;92341;-78
2022/05/19 00:04:14;;;;;;;0.10;0.10;;;;;;;;;;5037343;28;92694;-77
2022/05/19 00:06:40;;;;;;;0.00;0.00;;;;;;;;;;5037012;28;93982;-77
2022/05/19 00:09:07;;;;;;;0.00;0.00;;;;;;;;;;5035664;28;94690;-77
2022/05/19 00:11:34;;;;;;;0.03;0.03;;;;;;;;;;5037267;28;95095;-77
2022/05/19 00:14:00;;;;;;;0.10;0.10;;;;;;;;;;5036554;28;93125;-79
2022/05/19 00:16:27;;;;;;;0.10;0.10;;;;;;;;;;5037120;28;92279;-76
2022/05/19 00:18:54;;;;;;;0.05;0.05;;;;;;;;;;5038104;27;92391;-78
2022/05/19 00:21:21;;;;;;;0.10;0.10;;;;;;;;;;5006277;28;93731;-78
2022/05/19 00:23:48;;;;;;;0.00;0.00;;;;;;;;;;5043808;28;92268;-77
2022/05/19 00:26:14;;;;;;;0.00;0.00;;;;;;;;;;5040643;28;93965;-76
2022/05/19 00:28:40;;;;;;;0.00;0.00;;;;;;;;;;5040133;28;92199;-78
2022/05/19 00:31:07;;;;;;;0.00;0.00;;;;;;;;;;5040718;28;93761;-78
2022/05/19 00:33:33;;;;;;;0.10;0.10;;;;;;;;;;5038635;28;95951;-78
2022/05/19 00:36:14;;;;;;;0.00;0.00;;;;;;;;;;5039081;28;92878;-78
2022/05/19 00:38:41;;;;;;;0.10;0.10;;;;;;;;;;5019482;28;94479;-78
2022/05/19 00:41:09;;;;;;;0.00;0.00;;;;;;;;;;5020640;28;93374;-80
2022/05/19 00:43:42;;;;;;;0.20;0.20;;;;;;;;;;5039637;28;92431;-77
2022/05/19 00:46:09;;;;;;;0.10;0.10;;;;;;;;;;5043302;28;93311;-77
2022/05/19 00:48:40;;;;;;;0.32;0.32;;;;;;;;;;5040150;28;92372;-78
2022/05/19 00:51:07;;;;;;;0.00;0.00;;;;;;;;;;5023182;28;93488;-78
2022/05/19 00:53:38;;;;;;;0.20;0.20;;;;;;;;;;5039950;28;93161;-77
2022/05/19 00:56:08;;;;;;;0.33;0.33;;;;;;;;;;5040499;28;92837;-77
2022/05/19 00:58:38;;;;;;;0.00;0.00;;;;;;;;;;5038603;28;94732;-78
2022/05/19 01:01:06;;;;;;;0.52;0.40;;;;;;;;;;5052654;28;93612;-77
2022/05/19 01:03:37;;;;;;;0.00;0.00;;;;;;;;;;5045309;28;92382;-77
2022/05/19 01:06:07;;;;;;;0.00;0.00;;;;;;;;;;5040137;28;93325;-77
2022/05/19 01:08:40;;;;;;;0.00;0.00;;;;;;;;;;5042527;28;93179;-77
2022/05/19 01:11:07;;;;;;;0.00;0.00;;;;;;;;;;5038930;28;93691;-76
2022/05/19 01:13:35;;;;;;;0.00;0.00;;;;;;;;;;5038884;28;94097;-77
2022/05/19 01:16:02;;;;;;;0.00;0.00;;;;;;;;;;5040443;28;91617;-77
2022/05/19 01:18:29;;;;;;;0.10;0.10;;;;;;;;;;5039905;28;92406;-77
2022/05/19 01:20:58;;;;;;;0.00;0.00;;;;;;;;;;5041820;27;94958;-77
2022/05/19 01:23:27;;;;;;;0.00;0.00;;;;;;;;;;5058009;27;94678;-77
2022/05/19 01:26:05;;;;;;;0.10;0.10;;;;;;;;;;5060010;27;95869;-77
2022/05/19 01:28:31;;;;;;;0.00;0.00;;;;;;;;;;5059831;27;93940;-77
2022/05/19 01:30:59;;;;;;;0.10;0.10;;;;;;;;;;5062168;27;92252;-78
2022/05/19 01:33:25;;;;;;;0.00;0.00;;;;;;;;;;5059980;27;93121;-77
2022/05/19 01:35:52;;;;;;;0.03;0.03;;;;;;;;;;5059681;27;92281;-79
2022/05/19 01:38:25;;;;;;;0.00;0.00;;;;;;;;;;5041346;27;94715;-78
2022/05/19 01:41:24;;;;;;;0.00;0.00;;;;;;;;;;5042142;27;94458;-76
2022/05/19 01:43:56;;;;;;;0.10;0.10;;;;;;;;;;5060096;27;92215;-76
2022/05/19 01:46:28;;;;;;;0.00;0.00;;;;;;;;;;5041118;27;95967;-77
2022/05/19 01:48:54;;;;;;;;;;;;;;;;;;5058239;27;95954;-77
2022/05/19 01:51:36;;;;;;;0.00;0.00;;;;;;;;;;5058679;27;117575;-76
2022/05/19 01:54:16;;;;;;;0.15;0.15;;;;;;;;;;5062634;27;92866;-77
2022/05/19 01:56:52;;;;;;;0.00;0.00;;;;;;;;;;5059343;27;92304;-77
2022/05/19 01:59:24;;;;;;;0.00;0.00;;;;;;;;;;5058939;27;93636;-76
2022/05/19 02:01:54;;;;;;;0.00;0.00;;;;;;;;;;5059223;27;93707;-78
2022/05/19 02:04:26;;;;;;;0.10;0.10;;;;;;;;;;5059337;27;92251;-77
2022/05/19 02:06:52;;;;;;;;;;;;;;;;;;5042496;27;93316;-78
2022/05/19 02:09:19;;;;;;;0.00;0.00;;;;;;;;;;5057939;27;122132;-78
2022/05/19 02:11:47;;;;;;;0.10;0.10;;;;;;;;;;5041382;27;92329;-78
2022/05/19 02:14:16;;;;;;;0.03;0.03;;;;;;;;;;5060642;27;94660;-77
2022/05/19 02:16:43;;;;;;;0.00;0.00;;;;;;;;;;5059116;27;92345;-75
2022/05/19 02:19:11;;;;;;;0.10;0.10;;;;;;;;;;5059117;27;92244;-77
2022/05/19 02:21:38;;;;;;;0.20;0.20;;;;;;;;;;4995847;28;92956;-77
2022/05/19 02:24:06;;;;;;;0.45;0.45;;;;;;;;;;4996473;28;92560;-76
2022/05/19 02:26:33;;;;;;;0.10;0.10;;;;;;;;;;4996587;28;93346;-77
2022/05/19 02:29:02;;;;;;;0.00;0.00;;;;;;;;;;4996386;28;93861;-77
2022/05/19 02:31:29;;;;;;;0.00;0.00;;;;;;;;;;4997147;28;91611;-76
2022/05/19 02:33:55;;;;;;;0.00;0.00;;;;;;;;;;4996387;28;94359;-76
2022/05/19 02:36:21;;;;;;;0.00;0.00;;;;;;;;;;4999055;28;93939;-76
2022/05/19 02:38:48;;;;;;;0.10;0.10;;;;;;;;;;5000237;27;94660;-76
2022/05/19 02:41:14;;;;;;;0.00;0.00;;;;;;;;;;5058631;27;93577;-76
2022/05/19 02:43:40;;;;;;;0.00;0.00;;;;;;;;;;5059180;27;92300;-75
2022/05/19 02:46:07;;;;;;;0.13;0.13;;;;;;;;;;5058822;27;93518;-76
2022/05/19 02:48:33;;;;;;;0.00;0.00;;;;;;;;;;5058396;27;93545;-76
2022/05/19 02:51:00;;;;;;;0.17;0.17;;;;;;;;;;5058323;27;92330;-77
2022/05/19 02:53:26;;;;;;;0.00;0.00;;;;;;;;;;5058779;27;93263;-75
2022/05/19 02:55:53;;;;;;;0.00;0.00;;;;;;;;;;5058873;27;92634;-76
2022/05/19 02:58:20;;;;;;;0.20;0.10;;;;;;;;;;5061628;27;92248;-76
2022/05/19 03:00:47;;;;;;;0.00;0.00;;;;;;;;;;5058026;27;93047;-76
2022/05/19 03:03:14;;;;;;;0.00;0.00;;;;;;;;;;5056997;27;94760;-77
2022/05/19 03:05:40;;;;;;;0.00;0.00;;;;;;;;;;5057639;27;96583;-76
2022/05/19 03:08:07;;;;;;;0.00;0.00;;;;;;;;;;5058174;27;93982;-76
2022/05/19 03:10:36;;;;;;;0.13;0.13;;;;;;;;;;5058384;27;92417;-76
2022/05/19 03:13:02;;;;;;;0.25;0.25;;;;;;;;;;5059887;27;92707;-77
2022/05/19 03:15:29;;;;;;;0.98;0.98;;;;;;;;;;5063727;27;93628;-76
2022/05/19 03:17:56;;;;;;;0.10;0.10;;;;;;;;;;5058518;27;92516;-77
2022/05/19 03:20:22;;;;;;;0.40;0.40;;;;;;;;;;5061278;27;92173;-76
2022/05/19 03:22:49;;;;;;;1.08;0.75;;;;;;;;;;5058265;27;92409;-75
2022/05/19 03:25:15;;;;;;;0.00;0.00;;;;;;;;;;5057653;27;94216;-75
2022/05/19 03:27:42;;;;;;;0.30;0.30;;;;;;;;;;5056157;27;96289;-73
2022/05/19 03:30:10;;;;;;;0.25;0.25;;;;;;;;;;5057258;27;92314;-73
2022/05/19 03:32:37;;;;;;;0.10;0.10;;;;;;;;;;5057514;27;93357;-74
2022/05/19 03:35:03;;;;;;;0.45;0.45;;;;;;;;;;5057443;27;94101;-73
2022/05/19 03:37:30;;;;;;;0.00;0.00;;;;;;;;;;5057969;27;92299;-73
2022/05/19 03:39:56;;;;;;;0.00;0.00;;;;;;;;;;5056613;27;94309;-73
2022/05/19 03:42:22;;;;;;;0.00;0.00;;;;;;;;;;5060964;27;93610;-75
2022/05/19 03:44:49;;;;;;;0.25;0.25;;;;;;;;;;5058395;27;92441;-73
2022/05/19 03:47:15;;;;;;;0.00;0.00;;;;;;;;;;5054135;27;93437;-74
2022/05/19 03:49:41;;;;;;;0.00;0.00;;;;;;;;;;5057563;27;92349;-73
2022/05/19 03:52:08;;;;;;;0.00;0.00;;;;;;;;;;5056136;27;94731;-74
2022/05/19 03:54:34;;;;;;;0.00;0.00;;;;;;;;;;5056829;27;93052;-74
2022/05/19 03:57:01;;;;;;;0.10;0.10;;;;;;;;;;5057806;27;92286;-73
2022/05/19 03:59:27;;;;;;;0.47;0.47;;;;;;;;;;5057136;27;93871;-74
2022/05/19 04:01:53;;;;;;;0.00;0.00;;;;;;;;;;5057108;27;93923;-73
2022/05/19 04:04:20;;;;;;;0.10;0.10;;;;;;;;;;5060657;27;92122;-73
2022/05/19 04:06:46;;;;;;;8.00;1.83;;;;;;;;;;5057050;27;93562;-73
2022/05/19 04:09:12;;;;;;;0.10;0.10;;;;;;;;;;5057933;27;91632;-73
2022/05/19 04:11:39;;;;;;;0.40;0.40;;;;;;;;;;5057488;27;92984;-73
2022/05/19 04:14:07;;;;;;;0.10;0.10;;;;;;;;;;5057171;27;92778;-73
2022/05/19 04:16:33;;;;;;;0.05;0.05;;;;;;;;;;5055355;27;94657;-73
2022/05/19 04:18:59;;;;;;;0.00;0.00;;;;;;;;;;5056933;27;95792;-73
2022/05/19 04:21:26;;;;;;;0.00;0.00;;;;;;;;;;5056680;27;93716;-73
2022/05/19 04:23:53;;;;;;;0.00;0.00;;;;;;;;;;5042735;27;92368;-73
2022/05/19 04:26:19;;;;;;;0.10;0.10;;;;;;;;;;5056765;27;93446;-73
2022/05/19 04:28:45;;;;;;;0.00;0.00;;;;;;;;;;5057131;27;93477;-73
2022/05/19 04:31:12;;;;;;;0.00;0.00;;;;;;;;;;5057178;27;93549;-73
2022/05/19 04:33:40;;;;;;;0.00;0.00;;;;;;;;;;5057289;27;91568;-73
2022/05/19 04:36:07;;;;;;;0.08;0.08;;;;;;;;;;5057179;27;92181;-74
2022/05/19 04:38:33;;;;;;;0.00;0.00;;;;;;;;;;5056763;27;93229;-73
2022/05/19 04:41:01;;;;;;;0.00;0.00;;;;;;;;;;5037334;27;95855;-73
2022/05/19 04:43:27;;;;;;;0.38;0.38;;;;;;;;;;5056896;27;92330;-74
2022/05/19 04:45:54;;;;;;;0.00;0.00;;;;;;;;;;5059945;27;92480;-75
2022/05/19 04:48:21;;;;;;;0.00;0.00;;;;;;;;;;5038928;27;92324;-75
2022/05/19 04:50:51;;;;;;;0.00;0.00;;;;;;;;;;5039007;27;93513;-74
2022/05/19 04:53:18;;;;;;;0.20;0.20;;;;;;;;;;5056307;27;93204;-75
2022/05/19 04:55:44;;;;;;;0.00;0.00;;;;;;;;;;5056468;27;92306;-74
2022/05/19 04:58:10;;;;;;;0.20;0.20;;;;;;;;;;5057309;27;93332;-75
2022/05/19 05:00:37;;;;;;;0.00;0.00;;;;;;;;;;5056014;27;93216;-74
2022/05/19 05:03:04;;;;;;;0.08;0.08;;;;;;;;;;5056777;27;92258;-74
2022/05/19 05:05:30;;;;;;;0.00;0.00;;;;;;;;;;5055820;27;94655;-73
2022/05/19 05:07:58;;;;;;;0.00;0.00;;;;;;;;;;5045176;27;95217;-74
2022/05/19 05:10:24;;;;;;;0.10;0.10;;;;;;;;;;5060178;27;93524;-73
2022/05/19 05:12:50;;;;;;;0.00;0.00;;;;;;;;;;5060041;27;93906;-74
2022/05/19 05:15:17;;;;;;;0.00;0.00;;;;;;;;;;5060003;27;92389;-74
2022/05/19 05:17:43;;;;;;;0.00;0.00;;;;;;;;;;5060000;27;93412;-74
2022/05/19 05:20:12;;;;;;;0.00;0.00;;;;;;;;;;5059867;27;93639;-74
2022/05/19 05:22:39;;;;;;;0.10;0.10;;;;;;;;;;5060463;27;91626;-73
2022/05/19 05:25:07;;;;;;;0.00;0.00;;;;;;;;;;5060096;27;92921;-73
2022/05/19 05:27:33;;;;;;;0.10;0.10;;;;;;;;;;5061206;27;93507;-76
2022/05/19 05:30:00;;;;;;;0.03;0.03;;;;;;;;;;5062038;27;94827;-75
2022/05/19 05:32:26;;;;;;;0.00;0.00;;;;;;;;;;5059582;27;92971;-76
2022/05/19 05:34:53;;;;;;;0.10;0.10;;;;;;;;;;5042216;27;94173;-75
2022/05/19 05:37:19;;;;;;;0.00;0.00;;;;;;;;;;5042000;27;92350;-76
2022/05/19 05:39:45;;;;;;;0.00;0.00;;;;;;;;;;5041849;27;93709;-74
2022/05/19 05:42:11;;;;;;;0.20;0.20;;;;;;;;;;5020657;28;92573;-75
2022/05/19 05:44:38;;;;;;;0.10;0.10;;;;;;;;;;5038653;27;92884;-75
2022/05/19 05:47:05;;;;;;;0.10;0.10;;;;;;;;;;5038947;27;92482;-75
2022/05/19 05:49:31;;;;;;;0.10;0.10;;;;;;;;;;5038987;27;92375;-75
2022/05/19 05:51:57;;;;;;;0.00;0.00;;;;;;;;;;5041444;27;94752;-77
2022/05/19 05:54:26;;;;;;;0.05;0.05;;;;;;;;;;5037138;27;94648;-77
2022/05/19 05:56:54;;;;;;;0.00;0.00;;;;;;;;;;5039185;27;95489;-81
2022/05/19 05:59:20;;;;;;;0.30;0.30;;;;;;;;;;5037738;27;93653;-77
2022/05/19 06:01:46;;;;;;;0.00;0.00;;;;;;;;;;5038355;27;92473;-78
2022/05/19 06:04:16;;;;;;;0.00;0.00;;;;;;;;;;5020341;27;93568;-78
2022/05/19 06:06:45;;;;;;;0.38;0.38;;;;;;;;;;5039744;27;93156;-78
2022/05/19 06:09:12;;;;;;;0.13;0.13;;;;;;;;;;5038246;27;92275;-78
2022/05/19 06:11:39;;;;;;;0.00;0.00;;;;;;;;;;5041914;27;93122;-79
2022/05/19 06:14:05;;;;;;;0.00;0.00;;;;;;;;;;5020511;27;92369;-77
2022/05/19 06:16:31;;;;;;;0.10;0.10;;;;;;;;;;5039321;27;93470;-76
2022/05/19 06:18:58;;;;;;;0.00;0.00;;;;;;;;;;5036507;27;95768;-76
2022/05/19 06:21:25;;;;;;;0.00;0.00;;;;;;;;;;5038342;27;92413;-73
2022/05/19 06:23:51;;;;;;;0.73;0.73;;;;;;;;;;5038187;27;93341;-74
2022/05/19 06:26:17;;;;;;;0.10;0.10;;;;;;;;;;5036886;27;93851;-72
2022/05/19 06:28:44;;;;;;;0.20;0.20;;;;;;;;;;5020657;27;92366;-74
2022/05/19 06:31:10;;;;;;;0.20;0.20;;;;;;;;;;5038840;27;92768;-75
2022/05/19 06:33:37;;;;;;;0.00;0.00;;;;;;;;;;5039385;27;93499;-76
2022/05/19 06:36:04;;;;;;;0.10;0.10;;;;;;;;;;5041286;27;91943;-77
2022/05/19 06:38:31;;;;;;;0.10;0.10;;;;;;;;;;5039003;27;93564;-77
2022/05/19 06:42:00;;;;;;;0.00;0.00;;;;;;;;;;5038583;27;92771;-77
2022/05/19 06:43:47;;;;;;;0.30;0.30;;;;;;;;;;5036378;27;94576;-75
2022/05/19 06:46:14;;;;;;;0.05;0.05;;;;;;;;;;5040565;27;93563;-77
2022/05/19 06:48:40;;;;;;;0.20;0.20;;;;;;;;;;5037648;27;92310;-76
2022/05/19 06:51:06;;;;;;;0.00;0.00;;;;;;;;;;5040391;27;93140;-73
2022/05/19 06:53:47;;;;;;;0.07;0.07;;;;;;;;;;5037623;27;92276;-75
2022/05/19 06:56:13;;;;;;;0.00;0.00;;;;;;;;;;5043951;27;92724;-71
2022/05/19 06:58:40;;;;;;;0.00;0.00;;;;;;;;;;5037249;27;94621;-71
2022/05/19 07:01:06;;;;;;;0.00;0.00;;;;;;;;;;5037486;27;91624;-70
2022/05/19 07:03:33;;;;;;;0.10;0.10;;;;;;;;;;5037634;27;92702;-68
2022/05/19 07:06:05;;;;;;;0.00;0.00;;;;;;;;;;5040127;27;95215;-69
2022/05/19 07:08:31;;;;;;;0.10;0.10;;;;;;;;;;5035926;27;94827;-69
2022/05/19 07:10:58;;;;;;;0.13;0.13;;;;;;;;;;5036890;27;95699;-69
2022/05/19 07:13:24;;;;;;;0.00;0.00;;;;;;;;;;5037556;27;92997;-69
2022/05/19 07:15:50;;;;;;;0.00;0.00;;;;;;;;;;5037096;27;92375;-73
2022/05/19 07:18:17;;;;;;;0.20;0.20;;;;;;;;;;5040467;27;92851;-73
2022/05/19 07:20:43;;;;;;;0.40;0.40;;;;;;;;;;5037197;27;92369;-73
2022/05/19 07:23:14;;;;;;;0.10;0.10;;;;;;;;;;5037279;27;93359;-73
2022/05/19 07:25:41;;;;;;;2.72;0.55;;;;;;;;;;5037890;27;92518;-73
2022/05/19 07:28:07;;;;;;;0.05;0.05;;;;;;;;;;5036361;27;92267;-73
2022/05/19 07:30:34;;;;;;;0.00;0.00;;;;;;;;;;5036928;27;93401;-73
2022/05/19 07:33:06;;;;;;;0.00;0.00;;;;;;;;;;5034950;27;95485;-74
2022/05/19 07:35:34;;;;;;;0.13;0.05;;;;;;;;;;5037515;27;92389;-73
2022/05/19 07:38:01;;;;;;;0.10;0.10;;;;;;;;;;5037167;27;92286;-72
2022/05/19 07:40:27;;;;;;;0.10;0.10;;;;;;;;;;5042287;27;93919;-73
2022/05/19 07:42:53;;;;;;;0.10;0.10;;;;;;;;;;5037126;27;92882;-73
2022/05/19 07:45:20;;;;;;;0.10;0.10;;;;;;;;;;5019623;27;93158;-73
2022/05/19 07:47:46;;;;;;;0.05;0.05;;;;;;;;;;5022725;28;93666;-73
2022/05/19 07:50:13;;;;;;;0.10;0.10;;;;;;;;;;5036895;27;95072;-73
2022/05/19 07:52:40;;;;;;;0.50;0.50;;;;;;;;;;5036510;27;93110;-73
2022/05/19 07:55:07;;;;;;;0.10;0.10;;;;;;;;;;5038126;27;92447;-73
2022/05/19 07:57:33;;;;;;;0.10;0.10;;;;;;;;;;5035334;27;94918;-73
2022/05/19 08:00:00;;;;;;;0.10;0.10;;;;;;;;;;5036226;27;93707;-73
2022/05/19 08:02:26;;;;;;;0.00;0.00;;;;;;;;;;5039447;27;92196;-74
2022/05/19 08:04:53;;;;;;;0.10;0.10;;;;;;;;;;5037101;27;93037;-73
2022/05/19 08:07:19;;;;;;;0.10;0.10;;;;;;;;;;5037465;27;92930;-73
2022/05/19 08:15:35;;;;;;;0.10;0.10;;;;;;;;;;5039552;27;91674;-74
2022/05/19 08:18:09;;;;;;;0.10;0.10;;;;;;;;;;5036730;27;92904;-73
2022/05/19 08:20:38;;;;;;;0.10;0.10;;;;;;;;;;5036323;27;93753;-72
2022/05/19 08:23:06;;;;;;;0.00;0.00;;;;;;;;;;5037745;27;94787;-73
2022/05/19 08:25:33;;;;;;;0.10;0.10;;;;;;;;;;5038907;27;94604;-72
2022/05/19 08:27:59;;;;;;;0.10;0.10;;;;;;;;;;5036461;27;92410;-73
2022/05/19 08:30:26;;;;;;;0.10;0.10;;;;;;;;;;5036203;27;93406;-72
2022/05/19 08:32:53;;;;;;;0.00;0.00;;;;;;;;;;5031523;27;93060;-73
2022/05/19 08:35:20;;;;;;;0.10;0.10;;;;;;;;;;5039616;27;92406;-72
2022/05/19 08:37:47;;;;;;;0.10;0.10;;;;;;;;;;5035845;27;93904;-73
2022/05/19 08:40:14;;;;;;;0.10;0.10;;;;;;;;;;5038010;27;93007;-73
2022/05/19 08:42:43;;;;;;;0.10;0.10;;;;;;;;;;5039757;27;92183;-77
2022/05/19 08:45:15;;;;;;;0.17;0.17;;;;;;;;;;5045498;27;94592;-76
2022/05/19 08:47:41;;;;;;;0.10;0.10;;;;;;;;;;5038089;27;94718;-75
2022/05/19 08:50:26;;;;;;;0.10;0.10;;;;;;;;;;5039009;27;96656;-76
2022/05/19 08:52:53;;;;;;;0.10;0.10;;;;;;;;;;5039421;27;93972;-76
2022/05/19 08:55:20;;;;;;;0.10;0.10;;;;;;;;;;5039807;27;93181;-77
2022/05/19 08:57:47;;;;;;;0.20;0.20;;;;;;;;;;5022103;28;92901;-76
2022/05/19 09:00:33;;;;;;;0.10;0.10;;;;;;;;;;5039110;27;93515;-81
2022/05/19 09:03:08;;;;;;;0.10;0.10;;;;;;;;;;5039321;27;92322;-75
2022/05/19 09:05:34;;;;;;;0.10;0.10;;;;;;;;;;5040130;27;92865;-75
2022/05/19 09:08:20;;;;;;;0.10;0.10;;;;;;;;;;5042217;27;95079;-77
2022/05/19 09:11:13;;;;;;;0.30;0.30;;;;;;;;;;5039125;27;94276;-77
2022/05/19 09:13:42;;;;;;;0.17;0.17;;;;;;;;;;5033606;27;96434;-76
2022/05/19 09:16:12;;;;;;;0.30;0.30;;;;;;;;;;5039710;27;92179;-74
2022/05/19 09:18:42;;;;;;;0.28;0.28;;;;;;;;;;5039205;27;92622;-72
2022/05/19 09:21:08;;;;;;;0.10;0.10;;;;;;;;;;5038787;27;93619;-74
2022/05/19 09:23:35;;;;;;;0.10;0.10;;;;;;;;;;5039079;27;93462;-74
2022/05/19 09:26:15;;;;;;;0.10;0.10;;;;;;;;;;5040418;27;92958;-75
2022/05/19 09:28:43;;;;;;;0.10;0.10;;;;;;;;;;5039082;27;93519;-74
2022/05/19 09:31:12;;;;;;;0.10;0.10;;;;;;;;;;5042490;27;91467;-74
2022/05/19 09:33:42;;;;;;;0.10;0.10;;;;;;;;;;5038574;27;93428;-74
2022/05/19 09:36:11;;;;;;;0.10;0.10;;;;;;;;;;5039880;27;92425;-74
2022/05/19 09:38:43;;;;;;;0.10;0.10;;;;;;;;;;5037161;27;94822;-74
2022/05/19 09:41:28;;;;;;;0.13;0.13;;;;;;;;;;5038180;27;93373;-74
2022/05/19 09:43:56;;;;;;;0.10;0.10;;;;;;;;;;5038885;27;92454;-74
2022/05/19 09:46:26;;;;;;;0.63;0.52;;;;;;;;;;5040064;27;93814;-74
2022/05/19 09:49:00;;;;;;;0.28;0.28;;;;;;;;;;5038179;27;93492;-75
2022/05/19 09:51:38;;;;;;;0.13;0.13;;;;;;;;;;5038932;27;92255;-75
2022/05/19 09:54:04;;;;;;;0.10;0.10;;;;;;;;;;5041636;27;93871;-76
2022/05/19 09:56:37;;;;;;;0.15;0.15;;;;;;;;;;5041649;27;91482;-76
2022/05/19 09:59:07;;;;;;;0.30;0.30;;;;;;;;;;5038222;27;92558;-75
2022/05/19 10:01:40;;;;;;;0.10;0.10;;;;;;;;;;5038154;27;92610;-76
2022/05/19 10:04:08;;;;;;;0.20;0.20;;;;;;;;;;5036815;27;94703;-77
2022/05/19 10:06:39;;;;;;;0.10;0.10;;;;;;;;;;5038164;27;95010;-75
2022/05/19 10:09:08;;;;;;;0.28;0.28;;;;;;;;;;5038077;27;95268;-75
2022/05/19 10:11:44;;;;;;;0.20;0.20;;;;;;;;;;5037996;27;92345;-76
2022/05/19 10:14:14;;;;;;;0.40;0.40;;;;;;;;;;5038278;27;93417;-75
2022/05/19 10:16:47;;;;;;;0.30;0.30;;;;;;;;;;5041123;27;93526;-77
2022/05/19 10:19:13;;;;;;;0.28;0.28;;;;;;;;;;5020514;27;92670;-76
2022/05/19 10:21:51;;;;;;;0.20;0.20;;;;;;;;;;5038636;27;92748;-76
2022/05/19 10:24:20;;;;;;;0.10;0.10;;;;;;;;;;5037725;27;93073;-77
2022/05/19 10:33:03;;;;;;;0.60;0.60;;;;;;;;;;5038066;27;92521;-77
2022/05/19 10:35:34;;;;;;;0.22;0.22;;;;;;;;;;5002339;28;92745;-77
2022/05/19 10:38:30;;;;;;;0.22;0.22;;;;;;;;;;5040948;27;93198;-79
2022/05/19 10:41:02;;;;;;;0.30;0.30;;;;;;;;;;4963986;27;92443;-79
2022/05/19 10:43:31;;;;;;;0.10;0.10;;;;;;;;;;5037642;27;93606;-77
2022/05/19 10:46:01;;;;;;;0.10;0.10;;;;;;;;;;5038164;27;92336;-77
2022/05/19 10:48:44;;;;;;;0.10;0.10;;;;;;;;;;5038558;27;92756;-77
2022/05/19 10:51:11;;;;;;;0.28;0.28;;;;;;;;;;5037388;27;93077;-77
2022/05/19 10:53:47;;;;;;;0.40;0.40;;;;;;;;;;5037673;27;92691;-78
2022/05/19 10:56:33;;;;;;;0.17;0.17;;;;;;;;;;5036460;27;95575;-76
2022/05/19 10:59:18;;;;;;;0.20;0.20;;;;;;;;;;5036762;27;93978;-76
2022/05/19 11:02:02;;;;;;;0.20;0.20;;;;;;;;;;5040027;27;92340;-76
2022/05/19 11:04:41;;;;;;;0.10;0.10;;;;;;;;;;5036119;27;92311;-80
2022/05/19 11:07:32;;;;;;;1.10;0.30;;;;;;;;;;5038577;27;93210;-79
2022/05/19 11:13:40;;;;;;;0.20;0.20;;;;;;;;;;5037205;27;93234;-77
2022/05/19 11:24:24;;;;;;;0.10;0.10;;;;;;;;;;4952175;28;94274;-78
2022/05/19 11:27:08;;;;;;;0.10;0.10;;;;;;;;;;4952909;28;95238;-77
2022/05/19 11:29:41;;;;;;;0.10;0.10;;;;;;;;;;4963852;27;96263;-77
2022/05/19 11:32:25;;;;;;;0.10;0.10;;;;;;;;;;5019136;27;93813;-78
2022/05/19 11:35:18;;;;;;;0.10;0.10;;;;;;;;;;5020342;27;93820;-80
2022/05/19 11:38:06;;;;;;;0.10;0.10;;;;;;;;;;5036297;27;93055;-77
2022/05/19 11:40:43;;;;;;;0.10;0.10;;;;;;;;;;5036885;27;92260;-85
2022/05/19 11:43:12;;;;;;;0.22;0.22;;;;;;;;;;5037250;27;92811;-78
2022/05/19 11:45:58;;;;;;;0.10;0.10;;;;;;;;;;5039637;27;92219;-78
2022/05/19 11:57:35;;;;;;;2.55;1.17;;;;;;;;;;5037050;27;95701;-78
2022/05/19 12:00:07;;;;;;;1.08;0.45;;;;;;;;;;5035402;27;93655;-79
2022/05/19 12:02:47;;;;;;;0.10;0.10;;;;;;;;;;5036643;27;92354;-79
2022/05/19 12:05:42;;;;;;;;;;;;;;;;;;;;;
2022/05/19 12:08:50;;;;;;;;;;;;;;;;;;;;;
2022/05/19 12:15:40;;;;;;;0.15;0.15;;;;;;;;;;5010236;28;96246;-78
2022/05/19 12:19:00;;;;;;;0.00;0.00;;;;;;;;;;4972233;27;121983;-78
2022/05/19 12:21:45;;;;;;;0.77;0.77;;;;;;;;;;5021471;27;92458;-78
2022/05/19 12:24:18;;;;;;;1.55;0.30;;;;;;;;;;5034840;27;95574;-76
2022/05/19 12:26:50;;;;;;;0.10;0.10;;;;;;;;;;5019152;27;92407;-78
2022/05/19 12:29:23;;;;;;;0.00;0.00;;;;;;;;;;5023090;28;93352;-78
2022/05/19 12:32:06;;;;;;;0.00;0.00;;;;;;;;;;5036564;27;93256;-79
2022/05/19 12:34:40;;;;;;;0.00;0.00;;;;;;;;;;5018833;28;92332;-78
2022/05/19 12:37:09;;;;;;;0.00;0.00;;;;;;;;;;5037468;27;92461;-76
2022/05/19 12:39:45;;;;;;;0.30;0.30;;;;;;;;;;5036072;27;93358;-77
2022/05/19 12:42:37;;;;;;;0.30;0.30;;;;;;;;;;5023866;27;91710;-76
2022/05/19 12:45:25;;;;;;;0.00;0.00;;;;;;;;;;5040254;27;93005;-78
2022/05/19 12:47:59;;;;;;;0.00;0.00;;;;;;;;;;5037071;27;92544;-77
2022/05/19 12:50:44;;;;;;;0.00;0.00;;;;;;;;;;5033797;27;95671;-77
2022/05/19 12:53:23;;;;;;;0.00;0.00;;;;;;;;;;5039390;27;93653;-77
2022/05/19 12:55:52;;;;;;;0.20;0.20;;;;;;;;;;5037568;27;93370;-75
2022/05/19 12:58:33;;;;;;;0.00;0.00;;;;;;;;;;5036045;27;92942;-78
2022/05/19 13:01:09;;;;;;;0.65;0.65;;;;;;;;;;5035129;27;92719;-76
2022/05/19 13:03:37;;;;;;;0.10;0.10;;;;;;;;;;5035516;27;92382;-76
2022/05/19 13:06:05;;;;;;;0.10;0.10;;;;;;;;;;5040900;27;93460;-75
2022/05/19 13:08:32;;;;;;;0.00;0.00;;;;;;;;;;5036391;27;91738;-75
2022/05/19 13:11:00;;;;;;;0.28;0.28;;;;;;;;;;5039774;27;93619;-75
2022/05/19 13:13:40;;;;;;;0.05;0.05;;;;;;;;;;5035504;27;92595;-75
2022/05/19 13:16:12;;;;;;;0.05;0.05;;;;;;;;;;5036575;27;94709;-76
2022/05/19 13:18:41;;;;;;;0.10;0.10;;;;;;;;;;5035247;27;95460;-75
2022/05/19 13:21:27;;;;;;;0.20;0.20;;;;;;;;;;5035573;27;93557;-75
2022/05/19 13:23:54;;;;;;;0.10;0.10;;;;;;;;;;5035769;27;92433;-76
2022/05/19 13:26:28;;;;;;;0.00;0.00;;;;;;;;;;5035565;27;93451;-75
2022/05/19 13:31:49;;;;;;;0.00;0.00;;;;;;;;;;5039173;27;92838;-74
2022/05/19 13:34:17;;;;;;;0.10;0.10;;;;;;;;;;5039335;27;92556;-75
2022/05/19 13:36:50;;;;;;;0.10;0.10;;;;;;;;;;5039257;27;92289;-74
2022/05/19 13:39:18;;;;;;;0.08;0.08;;;;;;;;;;5038646;27;94807;-76
2022/05/19 13:42:07;;;;;;;0.10;0.10;;;;;;;;;;5036072;27;96952;-74
2022/05/19 13:44:35;;;;;;;0.10;0.10;;;;;;;;;;5025913;27;93178;-74
2022/05/19 13:47:11;;;;;;;0.15;0.15;;;;;;;;;;5042388;27;92749;-74
2022/05/19 13:49:37;;;;;;;0.10;0.10;;;;;;;;;;5038542;27;93445;-73
2022/05/19 13:52:07;;;;;;;0.00;0.00;;;;;;;;;;5041038;27;92458;-76
2022/05/19 13:54:42;;;;;;;0.00;0.00;;;;;;;;;;5038392;27;93545;-71
2022/05/19 13:57:11;;;;;;;0.40;0.40;;;;;;;;;;5038867;27;92460;-74
2022/05/19 13:59:38;;;;;;;0.10;0.10;;;;;;;;;;5039044;27;93398;-74
2022/05/19 14:02:08;;;;;;;0.55;0.55;;;;;;;;;;5038113;27;93064;-74
2022/05/19 14:04:36;;;;;;;0.10;0.10;;;;;;;;;;5038057;27;92454;-73
2022/05/19 14:07:05;;;;;;;0.10;0.10;;;;;;;;;;5018219;27;94973;-74
2022/05/19 14:09:50;;;;;;;0.10;0.10;;;;;;;;;;5038526;27;93185;-75
2022/05/19 14:12:29;;;;;;;0.55;0.38;;;;;;;;;;5038481;27;92359;-72
2022/05/19 14:14:57;;;;;;;0.00;0.00;;;;;;;;;;5000338;27;93024;-77
2022/05/19 14:17:25;;;;;;;0.13;0.13;;;;;;;;;;5038483;27;92210;-77
2022/05/19 14:19:54;;;;;;;0.10;0.10;;;;;;;;;;5037655;27;94138;-77
2022/05/19 14:22:21;;;;;;;0.10;0.10;;;;;;;;;;5038204;27;93704;-78
2022/05/19 14:24:48;;;;;;;0.60;0.60;;;;;;;;;;5019670;27;91803;-78
2022/05/19 14:27:17;;;;;;;0.10;0.10;;;;;;;;;;5038785;27;92524;-77
2022/05/19 14:29:44;;;;;;;0.10;0.10;;;;;;;;;;5037799;27;93555;-76
2022/05/19 14:32:32;;;;;;;0.10;0.10;;;;;;;;;;5036514;27;94843;-77
2022/05/19 14:35:07;;;;;;;0.20;0.20;;;;;;;;;;5039326;27;95228;-78
2022/05/19 14:37:37;;;;;;;0.10;0.10;;;;;;;;;;5039643;27;93766;-76
2022/05/19 14:43:04;;;;;;;0.00;0.00;;;;;;;;;;5037499;27;94074;-75
2022/05/19 14:45:32;;;;;;;0.10;0.10;;;;;;;;;;5040059;27;93196;-78
2022/05/19 14:47:59;;;;;;;0.20;0.20;;;;;;;;;;5038191;27;93413;-80
2022/05/19 14:50:33;;;;;;;0.08;0.08;;;;;;;;;;5038268;27;93019;-79
2022/05/19 14:53:04;;;;;;;0.28;0.28;;;;;;;;;;5037723;27;92301;-76
2022/05/19 14:55:30;;;;;;;0.10;0.10;;;;;;;;;;5037463;27;93730;-76
2022/05/19 14:57:58;;;;;;;0.43;0.43;;;;;;;;;;5035305;27;95505;-79
2022/05/19 15:00:27;;;;;;;0.10;0.10;;;;;;;;;;5044265;27;92499;-77
2022/05/19 15:02:53;;;;;;;0.10;0.10;;;;;;;;;;5037394;27;93181;-76
2022/05/19 15:05:20;;;;;;;0.10;0.10;;;;;;;;;;5040350;27;92330;-76
2022/05/19 15:07:47;;;;;;;0.30;0.30;;;;;;;;;;5037522;27;93331;-76
2022/05/19 15:10:14;;;;;;;0.15;0.15;;;;;;;;;;5037010;27;94213;-74
2022/05/19 15:12:41;;;;;;;0.10;0.10;;;;;;;;;;5037372;27;92197;-74
2022/05/19 15:15:08;;;;;;;0.10;0.10;;;;;;;;;;5040275;27;93265;-76
2022/05/19 15:17:35;;;;;;;0.00;0.00;;;;;;;;;;5037105;27;93665;-75
2022/05/19 15:20:02;;;;;;;0.20;0.20;;;;;;;;;;5040186;27;93234;-75
2022/05/19 15:22:29;;;;;;;0.10;0.10;;;;;;;;;;5034708;27;95767;-75
2022/05/19 15:24:56;;;;;;;0.10;0.10;;;;;;;;;;5038426;27;92411;-76
2022/05/19 15:27:24;;;;;;;0.10;0.10;;;;;;;;;;5039242;27;94516;-75
2022/05/19 15:29:52;;;;;;;0.10;0.10;;;;;;;;;;5036637;27;93630;-77
2022/05/19 15:32:19;;;;;;;0.22;0.22;;;;;;;;;;5036940;27;92247;-78
2022/05/19 15:34:45;;;;;;;0.10;0.10;;;;;;;;;;5036335;27;93330;-77
2022/05/19 15:37:16;;;;;;;0.20;0.20;;;;;;;;;;5041014;27;92242;-77
2022/05/19 15:39:43;;;;;;;0.10;0.10;;;;;;;;;;5041732;27;91685;-77
2022/05/19 15:42:11;;;;;;;0.10;0.10;;;;;;;;;;5021803;27;93470;-77
2022/05/19 15:44:37;;;;;;;0.10;0.10;;;;;;;;;;5036825;27;92294;-76
2022/05/19 15:47:05;;;;;;;0.10;0.10;;;;;;;;;;5035482;27;94803;-79